createdAt,value
2019-02-03T00:04:36.959Z,35.80
2019-02-03T00:07:26.509Z,36.57
2019-02-03T00:10:08.319Z,35.10
2019-02-03T00:12:57.853Z,36.23
2019-02-03T00:15:41.561Z,35.90
2019-02-03T00:18:31.071Z,35.67
2019-02-03T00:21:13.538Z,33.57
2019-02-03T00:24:03.073Z,32.93
2019-02-03T00:26:45.141Z,33.07
2019-02-03T00:29:34.739Z,34.10
2019-02-03T00:32:16.452Z,33.47
2019-02-03T00:34:58.310Z,31.03
2019-02-03T00:37:48.090Z,30.87
2019-02-03T00:40:30.903Z,31.33
2019-02-03T00:46:28.366Z,30.53
2019-02-03T00:49:17.868Z,31.63
2019-02-03T00:52:07.402Z,31.63
2019-02-03T00:54:49.847Z,32.50
2019-02-03T00:57:39.386Z,32.73
2019-02-03T01:00:28.986Z,33.40
2019-02-03T01:03:37.396Z,33.87
2019-02-03T01:06:20.908Z,35.07
2019-02-03T01:12:20.297Z,34.00
2019-02-03T01:15:21.261Z,34.77
2019-02-03T01:18:04.043Z,34.77
2019-02-03T01:20:53.569Z,33.47
2019-02-03T01:23:35.271Z,36.17
2019-02-03T01:29:39.862Z,35.63
2019-02-03T01:32:23.945Z,36.27
2019-02-03T01:38:21.311Z,34.87
2019-02-03T01:44:12.165Z,34.83
2019-02-03T01:46:54.057Z,33.07
2019-02-03T01:52:44.868Z,32.47
2019-02-03T01:55:26.960Z,33.23
2019-02-03T01:58:16.354Z,32.33
2019-02-03T02:00:59.030Z,32.70
2019-02-03T02:06:54.903Z,34.23
2019-02-03T02:09:44.423Z,33.83
2019-02-03T02:12:52.945Z,34.03
2019-02-03T02:15:41.576Z,34.27
2019-02-03T02:18:51.738Z,37.33
2019-02-03T02:21:34.340Z,36.80
2019-02-03T02:24:23.857Z,37.40
2019-02-03T02:27:13.411Z,37.93
2019-02-03T02:29:55.378Z,34.27
2019-02-03T02:35:32.797Z,36.73
2019-02-03T02:41:23.208Z,37.50
2019-02-03T02:44:05.617Z,35.33
2019-02-03T02:46:55.180Z,33.87
2019-02-03T02:49:37.647Z,35.60
2019-02-03T02:52:27.574Z,34.80
2019-02-03T02:55:10.365Z,34.37
2019-02-03T02:58:02.237Z,32.57
2019-02-03T03:00:44.579Z,32.60
2019-02-03T03:03:53.956Z,34.43
2019-02-03T03:06:24.108Z,31.80
2019-02-03T03:09:32.545Z,32.60
2019-02-03T03:12:15.110Z,33.27
2019-02-03T03:15:05.487Z,34.10
2019-02-03T03:18:13.893Z,34.70
2019-02-03T03:20:56.541Z,32.83
2019-02-03T03:23:46.022Z,36.23
2019-02-03T03:26:27.990Z,36.00
2019-02-03T03:29:36.409Z,36.53
2019-02-03T03:32:18.494Z,36.77
2019-02-03T03:35:08.024Z,35.30
2019-02-03T03:37:50.373Z,35.40
2019-02-03T03:40:40.071Z,34.60
2019-02-03T03:43:22.521Z,36.33
2019-02-03T03:46:12.592Z,36.07
2019-02-03T03:48:54.926Z,37.10
2019-02-03T03:51:44.828Z,35.70
2019-02-03T03:54:26.833Z,36.77
2019-02-03T04:00:24.567Z,38.60
2019-02-03T04:03:14.115Z,40.30
2019-02-03T04:06:03.641Z,38.30
2019-02-03T04:08:47.908Z,39.73
2019-02-03T04:14:30.549Z,41.40
2019-02-03T04:17:12.345Z,42.87
2019-02-03T04:20:21.076Z,42.10
2019-02-03T04:23:03.522Z,42.87
2019-02-03T04:25:54.610Z,45.93
2019-02-03T04:28:37.044Z,46.17
2019-02-03T04:31:26.597Z,46.87
2019-02-03T04:34:08.746Z,47.13
2019-02-03T04:39:46.830Z,49.17
2019-02-03T04:42:36.352Z,46.87
2019-02-03T04:45:22.318Z,48.43
2019-02-03T04:48:11.205Z,48.53
2019-02-03T04:50:53.376Z,46.13
2019-02-03T04:54:01.798Z,46.40
2019-02-03T04:56:45.358Z,47.63
2019-02-03T04:59:34.875Z,46.33
2019-02-03T05:02:17.758Z,42.17
2019-02-03T05:08:15.306Z,41.50
2019-02-03T05:11:04.839Z,42.67
2019-02-03T05:13:54.357Z,41.73
2019-02-03T05:16:36.559Z,44.17
2019-02-03T05:19:26.105Z,42.40
2019-02-03T05:22:08.021Z,41.57
2019-02-03T05:24:57.542Z,40.27
2019-02-03T05:27:40.145Z,39.97
2019-02-03T05:30:31.913Z,39.90
2019-02-03T05:33:15.510Z,39.07
2019-02-03T05:36:05.138Z,38.13
2019-02-03T05:38:46.864Z,38.20
2019-02-03T05:41:36.394Z,35.27
2019-02-03T05:44:19.172Z,34.13
2019-02-03T05:50:01.507Z,32.87
2019-02-03T05:52:51.312Z,34.23
2019-02-03T05:55:41.036Z,32.10
2019-02-03T05:58:24.907Z,27.93
2019-02-03T06:01:14.432Z,28.83
2019-02-03T06:03:56.795Z,30.30
2019-02-03T06:06:46.286Z,28.73
2019-02-03T06:09:36.886Z,28.20
2019-02-03T06:12:20.463Z,28.73
2019-02-03T06:15:02.296Z,28.17
2019-02-03T06:17:44.671Z,27.57
2019-02-03T06:20:34.292Z,28.80
2019-02-03T06:23:19.631Z,26.07
2019-02-03T06:26:09.224Z,28.13
2019-02-03T06:28:51.633Z,26.57
2019-02-03T06:32:01.083Z,26.07
2019-02-03T06:34:45.490Z,25.60
2019-02-03T06:37:35.002Z,26.20
2019-02-03T06:40:17.979Z,24.53
2019-02-03T06:46:53.953Z,23.07
2019-02-03T06:49:40.547Z,21.57
2019-02-03T06:52:30.054Z,21.93
2019-02-03T06:55:12.654Z,21.40
2019-02-03T06:58:02.260Z,22.23
2019-02-03T07:00:44.965Z,21.67
2019-02-03T07:03:34.675Z,21.73
2019-02-03T07:06:16.780Z,21.20
2019-02-03T07:12:29.594Z,19.93
2019-02-03T07:15:12.506Z,21.27
2019-02-03T07:21:29.842Z,19.90
2019-02-03T07:24:19.544Z,20.60
2019-02-03T07:27:12.092Z,17.90
2019-02-03T07:30:02.892Z,19.27
2019-02-03T07:32:44.927Z,18.90
2019-02-03T07:38:35.839Z,18.70
2019-02-03T07:41:18.509Z,19.13
2019-02-03T07:44:08.137Z,19.57
2019-02-03T07:46:52.581Z,18.60
2019-02-03T07:49:44.490Z,18.87
2019-02-03T07:52:26.963Z,17.90
2019-02-03T07:55:37.071Z,19.07
2019-02-03T07:58:25.780Z,18.37
2019-02-03T08:01:15.307Z,18.10
2019-02-03T08:03:59.657Z,19.17
2019-02-03T08:06:49.240Z,19.47
2019-02-03T08:09:38.781Z,18.10
2019-02-03T08:12:23.125Z,17.63
2019-02-03T08:15:13.293Z,19.07
2019-02-03T08:17:59.974Z,19.17
2019-02-03T08:21:08.706Z,19.13
2019-02-03T08:23:51.405Z,18.07
2019-02-03T08:26:51.063Z,18.83
2019-02-03T08:29:33.813Z,19.40
2019-02-03T08:32:23.539Z,18.00
2019-02-03T08:35:05.731Z,16.70
2019-02-03T08:37:55.490Z,17.33
2019-02-03T08:40:39.909Z,16.60
2019-02-03T08:43:22.041Z,17.93
2019-02-03T08:46:11.753Z,14.73
2019-02-03T08:51:55.345Z,13.97
2019-02-03T09:00:43.967Z,14.97
2019-02-03T09:03:27.817Z,15.43
2019-02-03T09:06:17.371Z,15.77
2019-02-03T09:09:00.595Z,16.13
2019-02-03T09:11:50.052Z,14.93
2019-02-03T09:14:39.680Z,15.77
2019-02-03T09:17:22.275Z,13.27
2019-02-03T09:20:33.208Z,14.80
2019-02-03T09:23:17.659Z,13.60
2019-02-03T09:26:08.596Z,13.23
2019-02-03T09:28:51.599Z,12.53
2019-02-03T09:31:41.236Z,12.00
2019-02-03T09:34:24.116Z,13.20
2019-02-03T09:37:38.080Z,12.60
2019-02-03T09:40:23.643Z,11.93
2019-02-03T09:46:15.582Z,13.27
2019-02-03T09:49:05.328Z,12.27
2019-02-03T09:51:47.186Z,13.10
2019-02-03T09:54:36.693Z,12.13
2019-02-03T09:57:19.042Z,11.67
2019-02-03T10:00:12.318Z,13.83
2019-02-03T10:02:56.322Z,13.13
2019-02-03T10:05:45.997Z,12.47
2019-02-03T10:08:40.080Z,13.10
2019-02-03T10:11:22.872Z,12.63
2019-02-03T10:14:04.523Z,13.77
2019-02-03T10:16:54.121Z,12.97
2019-02-03T10:19:43.859Z,13.80
2019-02-03T10:22:33.466Z,12.97
2019-02-03T10:25:17.192Z,12.73
2019-02-03T10:28:07.342Z,13.10
2019-02-03T10:30:49.997Z,11.83
2019-02-03T10:33:59.569Z,12.53
2019-02-03T10:36:42.093Z,13.40
2019-02-03T10:39:24.960Z,14.00
2019-02-03T10:42:14.604Z,15.80
2019-02-03T10:44:57.231Z,15.30
2019-02-03T10:47:46.780Z,13.20
2019-02-03T10:50:29.606Z,13.33
2019-02-03T10:53:31.013Z,14.00
2019-02-03T10:56:32.311Z,13.80
2019-02-03T10:59:22.170Z,14.00
2019-02-03T11:02:11.752Z,14.10
2019-02-03T11:04:54.362Z,13.93
2019-02-03T11:08:03.011Z,17.63
2019-02-03T11:10:45.715Z,13.70
2019-02-03T11:13:35.336Z,12.93
2019-02-03T11:16:18.956Z,14.80
2019-02-03T11:19:08.616Z,15.43
2019-02-03T11:21:51.100Z,16.07
2019-02-03T11:24:40.978Z,14.40
2019-02-03T11:27:50.875Z,15.40
2019-02-03T11:40:20.301Z,14.90
2019-02-03T11:43:02.528Z,15.33
2019-02-03T11:45:52.240Z,15.53
2019-02-03T11:51:57.528Z,15.37
2019-02-03T11:54:39.713Z,15.30
2019-02-03T12:00:36.253Z,12.17
2019-02-03T12:03:42.673Z,11.90
2019-02-03T12:06:27.278Z,12.20
2019-02-03T12:09:16.870Z,11.17
2019-02-03T12:15:18.854Z,11.17
2019-02-03T12:18:08.468Z,11.63
2019-02-03T12:20:50.417Z,12.53
2019-02-03T12:23:40.093Z,12.37
2019-02-03T12:26:28.492Z,12.37
2019-02-03T12:29:15.323Z,11.33
2019-02-03T12:32:05.307Z,10.80
2019-02-03T12:34:47.450Z,10.13
2019-02-03T12:37:37.298Z,10.43
2019-02-03T12:40:21.124Z,10.37
2019-02-03T12:43:10.888Z,11.60
2019-02-03T12:45:53.484Z,12.00
2019-02-03T12:48:43.063Z,12.70
2019-02-03T12:51:25.209Z,12.80
2019-02-03T12:54:17.996Z,15.33
2019-02-03T12:59:54.977Z,16.77
2019-02-03T13:02:44.708Z,17.20
2019-02-03T13:05:32.975Z,17.93
2019-02-03T13:08:15.520Z,16.97
2019-02-03T13:11:05.135Z,19.40
2019-02-03T13:13:53.435Z,17.20
2019-02-03T13:16:38.338Z,17.93
2019-02-03T13:19:29.140Z,17.37
2019-02-03T13:22:12.157Z,18.97
2019-02-03T13:25:03.460Z,19.30
2019-02-03T13:27:48.498Z,18.90
2019-02-03T13:30:40.569Z,18.70
2019-02-03T13:33:24.932Z,17.87
2019-02-03T13:36:14.488Z,19.37
2019-02-03T13:38:56.912Z,20.27
2019-02-03T13:41:46.862Z,20.60
2019-02-03T13:44:36.927Z,21.93
2019-02-03T13:47:27.494Z,21.53
2019-02-03T13:50:10.464Z,21.73
2019-02-03T13:53:00.197Z,22.83
2019-02-03T13:55:42.671Z,22.57
2019-02-03T13:58:36.602Z,20.47
2019-02-03T14:01:18.313Z,21.43
2019-02-03T14:04:06.975Z,21.90
2019-02-03T14:06:48.770Z,22.10
2019-02-03T14:12:49.491Z,21.93
2019-02-03T14:15:38.521Z,22.10
2019-02-03T14:18:28.302Z,22.50
2019-02-03T14:21:13.081Z,20.57
2019-02-03T14:23:54.957Z,21.67
2019-02-03T14:26:44.432Z,20.23
2019-02-03T14:29:34.603Z,20.40
2019-02-03T14:32:16.713Z,22.10
2019-02-03T14:35:28.186Z,19.93
2019-02-03T14:38:10.792Z,19.50
2019-02-03T14:41:01.599Z,20.80
2019-02-03T14:43:50.156Z,18.87
2019-02-03T14:46:33.437Z,20.47
2019-02-03T14:49:23.518Z,20.87
2019-02-03T14:52:17.026Z,18.53
2019-02-03T14:55:08.964Z,19.53
2019-02-03T14:57:50.889Z,18.80
2019-02-03T15:00:43.086Z,20.57
2019-02-03T15:03:31.386Z,17.07
2019-02-03T15:06:22.008Z,18.40
2019-02-03T15:09:07.381Z,18.37
2019-02-03T15:11:57.109Z,17.47
2019-02-03T15:14:45.458Z,15.77
2019-02-03T15:17:28.231Z,18.80
2019-02-03T15:20:18.092Z,17.00
2019-02-03T15:23:02.231Z,18.67
2019-02-03T15:25:54.030Z,16.97
2019-02-03T15:28:38.589Z,16.33
2019-02-03T15:31:28.676Z,17.30
2019-02-03T15:34:12.934Z,17.13
2019-02-03T15:37:02.585Z,16.47
2019-02-03T15:39:45.458Z,16.17
2019-02-03T15:42:54.352Z,17.47
2019-02-03T15:45:38.765Z,15.40
2019-02-03T15:48:28.663Z,16.53
2019-02-03T15:51:11.165Z,15.80
2019-02-03T15:57:18.286Z,14.50
2019-02-03T16:00:01.595Z,16.07
2019-02-03T16:02:51.235Z,15.47
2019-02-03T16:05:33.129Z,13.67
2019-02-03T16:08:43.611Z,14.77
2019-02-03T16:11:25.745Z,12.53
2019-02-03T16:14:54.696Z,13.90
2019-02-03T16:17:37.321Z,12.50
2019-02-03T16:20:29.180Z,12.20
2019-02-03T16:23:11.531Z,11.93
2019-02-03T16:29:09.034Z,11.87
2019-02-03T16:31:51.784Z,10.47
2019-02-03T16:35:00.821Z,11.40
2019-02-03T16:37:44.468Z,9.93
2019-02-03T16:40:44.792Z,11.70
2019-02-03T16:43:34.379Z,12.10
2019-02-03T16:46:17.754Z,12.57
2019-02-03T16:49:07.401Z,12.97
2019-02-03T16:51:49.214Z,13.50
2019-02-03T16:57:47.498Z,12.87
2019-02-03T17:00:37.093Z,12.30
2019-02-03T17:03:27.045Z,14.27
2019-02-03T17:09:08.345Z,11.77
2019-02-03T17:11:57.916Z,11.70
2019-02-03T17:14:39.919Z,13.70
2019-02-03T17:18:10.606Z,10.87
2019-02-03T17:21:01.278Z,11.50
2019-02-03T17:26:37.430Z,12.57
2019-02-03T17:29:26.994Z,11.27
2019-02-03T17:32:16.761Z,11.40
2019-02-03T17:34:59.373Z,16.00
2019-02-03T17:37:49.014Z,13.63
2019-02-03T17:40:32.840Z,17.37
2019-02-03T17:46:30.822Z,11.70
2019-02-03T17:52:21.729Z,10.97
2019-02-03T17:55:04.757Z,11.87
2019-02-03T18:01:06.847Z,13.37
2019-02-03T18:03:56.417Z,13.13
2019-02-03T18:06:39.121Z,13.10
2019-02-03T18:12:39.775Z,13.30
2019-02-03T18:18:38.797Z,12.97
2019-02-03T18:21:35.834Z,12.67
2019-02-03T18:27:33.365Z,12.40
2019-02-03T18:40:01.765Z,12.33
2019-02-03T18:46:13.709Z,11.40
2019-02-03T18:52:30.938Z,12.60
2019-02-03T18:56:01.962Z,14.53
2019-02-03T18:58:44.784Z,14.37
2019-02-03T19:02:16.263Z,14.60
2019-02-03T19:04:58.283Z,15.33
2019-02-03T19:10:56.713Z,15.17
2019-02-03T19:14:47.390Z,14.77
2019-02-03T19:17:16.579Z,15.13
2019-02-03T19:39:28.276Z,15.77
2019-02-03T19:42:38.489Z,14.67
2019-02-03T19:45:28.228Z,14.23
2019-02-03T19:51:27.144Z,15.93
2019-02-03T19:57:23.363Z,15.10
2019-02-03T20:00:07.810Z,16.07
2019-02-03T20:03:37.135Z,12.93
2019-02-03T20:06:20.083Z,15.67
2019-02-03T20:09:49.397Z,15.90
2019-02-03T20:12:33.561Z,15.93
2019-02-03T20:15:34.852Z,16.50
2019-02-03T20:24:58.633Z,17.23
2019-02-03T20:27:40.722Z,17.33
2019-02-03T20:33:41.401Z,15.40
2019-02-03T20:39:43.806Z,17.27
2019-02-03T20:42:33.517Z,15.13
2019-02-03T20:45:21.082Z,16.37
2019-02-03T20:51:00.451Z,15.03
2019-02-03T20:54:00.920Z,17.87
2019-02-03T20:56:50.867Z,17.70
2019-02-03T21:00:12.593Z,17.50
2019-02-03T21:02:43.768Z,16.87
2019-02-03T21:06:26.831Z,16.30
2019-02-03T21:08:58.351Z,18.00
2019-02-03T21:17:50.809Z,18.50
2019-02-03T21:20:51.412Z,18.73
2019-02-03T21:26:43.656Z,17.73
2019-02-03T21:32:27.084Z,18.63
2019-02-03T21:35:27.693Z,17.60
2019-02-03T21:38:38.203Z,18.20
2019-02-03T21:41:27.904Z,19.30
2019-02-03T21:44:10.046Z,18.33
2019-02-03T21:46:51.960Z,17.23
2019-02-03T21:50:21.008Z,18.90
2019-02-03T21:53:03.004Z,17.90
2019-02-03T21:58:45.109Z,17.50
2019-02-03T22:01:45.717Z,17.80
2019-02-03T22:07:37.668Z,17.90
2019-02-03T22:10:21.105Z,18.53
2019-02-03T22:13:13.495Z,17.77
2019-02-03T22:15:56.241Z,17.50
2019-02-03T22:21:54.268Z,17.83
2019-02-03T22:27:55.437Z,17.83
2019-02-03T22:30:45.023Z,16.40
2019-02-03T22:33:27.191Z,17.13
2019-02-03T22:39:09.306Z,18.17
2019-02-03T22:41:58.834Z,16.30
2019-02-03T22:45:07.258Z,15.67
2019-02-03T22:47:49.852Z,16.53
2019-02-03T22:50:41.802Z,14.03
2019-02-03T22:53:26.780Z,14.93
2019-02-03T22:59:27.315Z,15.70
2019-02-03T23:02:09.444Z,14.37
2019-02-03T23:04:58.993Z,15.43
2019-02-03T23:07:41.315Z,14.20
2019-02-03T23:10:30.917Z,15.47
2019-02-03T23:13:12.953Z,14.87
2019-02-03T23:16:02.513Z,15.70
2019-02-03T23:18:45.136Z,16.07
2019-02-03T23:21:34.678Z,14.50
2019-02-03T23:24:20.984Z,14.70
2019-02-03T23:27:10.621Z,14.93
2019-02-03T23:29:55.118Z,14.80
2019-02-03T23:38:46.653Z,14.70
2019-02-03T23:41:28.938Z,14.60
2019-02-03T23:44:18.427Z,14.83
2019-02-03T23:47:07.966Z,14.87
2019-02-03T23:49:53.062Z,15.30
2019-02-03T23:52:44.306Z,14.57
2019-02-03T23:55:26.868Z,14.97
